createdAt,value
2022-11-25T00:01:29.848Z,13.78
2022-11-25T00:03:58.076Z,13.75
2022-11-25T00:06:44.225Z,13.84
2022-11-25T00:09:13.188Z,13.88
2022-11-25T00:11:42.575Z,13.83
2022-11-25T00:14:14.976Z,13.85
2022-11-25T00:16:46.710Z,13.93
2022-11-25T00:19:15.751Z,13.96
2022-11-25T00:21:42.758Z,13.95
2022-11-25T00:24:10.813Z,13.91
2022-11-25T00:26:37.678Z,13.89
2022-11-25T00:29:06.348Z,13.93
2022-11-25T00:31:36.237Z,13.91
2022-11-25T00:34:03.866Z,13.91
2022-11-25T00:36:33.382Z,13.92
2022-11-25T00:39:03.790Z,13.90
2022-11-25T00:41:49.213Z,13.86
2022-11-25T00:44:37.477Z,13.76
2022-11-25T00:47:13.175Z,13.80
2022-11-25T00:49:42.172Z,13.87
2022-11-25T00:52:12.666Z,13.89
2022-11-25T00:54:39.418Z,13.91
2022-11-25T00:57:06.447Z,13.93
2022-11-25T00:59:33.130Z,13.90
2022-11-25T01:02:00.354Z,13.84
2022-11-25T01:04:27.251Z,13.75
2022-11-25T01:06:54.466Z,13.71
2022-11-25T01:09:21.276Z,13.67
2022-11-25T01:11:51.491Z,13.62
2022-11-25T01:14:18.367Z,13.21
2022-11-25T01:16:45.130Z,13.35
2022-11-25T01:19:12.666Z,13.31
2022-11-25T01:21:39.518Z,13.34
2022-11-25T01:24:06.762Z,13.34
2022-11-25T01:26:35.178Z,13.36
2022-11-25T01:29:04.246Z,13.32
2022-11-25T01:31:34.926Z,13.37
2022-11-25T01:34:05.801Z,13.38
2022-11-25T01:36:32.873Z,13.39
2022-11-25T01:39:00.919Z,13.41
2022-11-25T01:41:31.775Z,13.40
2022-11-25T01:44:18.242Z,13.34
2022-11-25T01:47:07.307Z,13.28
2022-11-25T01:50:02.733Z,13.20
2022-11-25T01:52:35.216Z,13.26
2022-11-25T01:55:22.166Z,13.17
2022-11-25T01:57:52.542Z,13.13
2022-11-25T02:00:19.896Z,13.07
2022-11-25T02:02:49.719Z,13.04
2022-11-25T02:05:20.862Z,12.95
2022-11-25T02:07:49.761Z,12.96
2022-11-25T02:10:21.553Z,12.95
2022-11-25T02:12:48.965Z,12.89
2022-11-25T02:15:17.128Z,12.89
2022-11-25T02:17:45.119Z,12.85
2022-11-25T02:20:18.059Z,12.81
2022-11-25T02:23:25.717Z,12.70
2022-11-25T02:25:53.365Z,12.67
2022-11-25T02:28:26.458Z,12.66
2022-11-25T02:30:53.461Z,12.67
2022-11-25T02:33:21.037Z,12.69
2022-11-25T02:35:47.673Z,12.68
2022-11-25T02:38:24.097Z,12.62
2022-11-25T02:41:01.199Z,12.57
2022-11-25T02:43:29.645Z,12.56
2022-11-25T02:45:59.131Z,12.56
2022-11-25T02:48:52.901Z,12.46
2022-11-25T02:51:18.511Z,12.41
2022-11-25T02:53:45.865Z,12.31
2022-11-25T02:56:14.714Z,12.38
2022-11-25T02:58:42.453Z,12.28
2022-11-25T03:01:10.009Z,12.24
2022-11-25T03:03:37.943Z,12.27
2022-11-25T03:06:07.355Z,12.22
2022-11-25T03:08:34.500Z,12.05
2022-11-25T03:11:01.737Z,12.18
2022-11-25T03:13:28.723Z,12.11
2022-11-25T03:15:55.708Z,12.13
2022-11-25T03:18:22.681Z,12.05
2022-11-25T03:20:53.911Z,11.99
2022-11-25T03:23:20.936Z,12.03
2022-11-25T03:25:47.788Z,12.00
2022-11-25T03:28:14.683Z,11.93
2022-11-25T03:30:41.586Z,11.96
2022-11-25T03:33:08.309Z,11.94
2022-11-25T03:35:35.295Z,11.86
2022-11-25T03:38:01.974Z,11.87
2022-11-25T03:40:28.690Z,11.79
2022-11-25T03:42:55.499Z,11.83
2022-11-25T03:45:22.223Z,11.83
2022-11-25T03:47:49.007Z,11.80
2022-11-25T03:50:16.607Z,11.81
2022-11-25T03:52:43.304Z,11.81
2022-11-25T03:55:13.124Z,11.82
2022-11-25T03:57:40.448Z,11.83
2022-11-25T04:00:07.984Z,11.87
2022-11-25T04:02:34.732Z,11.85
2022-11-25T04:05:03.476Z,11.75
2022-11-25T04:07:30.293Z,11.80
2022-11-25T04:09:57.070Z,11.90
2022-11-25T04:12:42.314Z,11.89
2022-11-25T04:15:09.331Z,11.95
2022-11-25T04:17:36.093Z,11.98
2022-11-25T04:20:03.450Z,12.00
2022-11-25T04:22:30.156Z,11.96
2022-11-25T04:24:56.932Z,11.88
2022-11-25T04:27:23.782Z,11.85
2022-11-25T04:29:50.493Z,11.77
2022-11-25T04:32:17.319Z,11.76
2022-11-25T04:34:44.172Z,11.76
2022-11-25T04:37:10.931Z,11.84
2022-11-25T04:39:37.753Z,11.88
2022-11-25T04:42:23.391Z,11.89
2022-11-25T04:45:14.179Z,11.86
2022-11-25T04:47:37.115Z,11.91
2022-11-25T04:50:05.336Z,11.86
2022-11-25T04:52:32.086Z,11.84
2022-11-25T04:54:58.847Z,11.81
2022-11-25T04:57:25.787Z,11.83
2022-11-25T04:59:52.566Z,11.79
2022-11-25T05:02:21.925Z,11.88
2022-11-25T05:04:50.525Z,11.88
2022-11-25T05:07:19.896Z,11.88
2022-11-25T05:09:47.012Z,11.91
2022-11-25T05:12:16.561Z,11.90
2022-11-25T05:14:43.310Z,11.91
2022-11-25T05:17:15.701Z,11.94
2022-11-25T05:19:42.924Z,11.92
2022-11-25T05:22:23.046Z,11.90
2022-11-25T05:24:49.811Z,11.95
2022-11-25T05:27:17.079Z,12.00
2022-11-25T05:29:44.229Z,12.01
2022-11-25T05:32:11.472Z,12.02
2022-11-25T05:34:39.177Z,11.97
2022-11-25T05:37:07.416Z,11.95
2022-11-25T05:39:34.148Z,11.99
2022-11-25T05:42:01.231Z,11.92
2022-11-25T05:44:28.172Z,11.91
2022-11-25T05:46:54.916Z,11.91
2022-11-25T05:49:22.068Z,11.92
2022-11-25T05:51:49.146Z,11.93
2022-11-25T05:54:15.919Z,11.93
2022-11-25T05:56:42.672Z,11.86
2022-11-25T05:59:09.745Z,11.88
2022-11-25T06:01:36.481Z,11.77
2022-11-25T06:04:04.935Z,11.75
2022-11-25T06:06:32.387Z,11.76
2022-11-25T06:08:59.772Z,11.75
2022-11-25T06:11:26.582Z,11.72
2022-11-25T06:13:53.479Z,11.73
2022-11-25T06:16:22.917Z,11.76
2022-11-25T06:18:49.872Z,11.68
2022-11-25T06:21:17.149Z,11.71
2022-11-25T06:23:45.671Z,11.66
2022-11-25T06:26:22.080Z,11.66
2022-11-25T06:28:50.568Z,11.65
2022-11-25T06:31:20.818Z,11.62
2022-11-25T06:33:48.292Z,11.31
2022-11-25T06:36:18.266Z,11.40
2022-11-25T06:38:47.119Z,11.52
2022-11-25T06:41:14.128Z,11.50
2022-11-25T06:43:41.496Z,11.55
2022-11-25T06:46:14.044Z,11.57
2022-11-25T06:48:41.182Z,11.72
2022-11-25T06:51:11.562Z,12.34
2022-11-25T06:53:39.638Z,12.26
2022-11-25T06:56:18.679Z,12.04
2022-11-25T06:58:47.186Z,12.03
2022-11-25T07:01:25.860Z,11.72
2022-11-25T07:03:56.668Z,11.68
2022-11-25T07:06:23.687Z,11.55
2022-11-25T07:08:51.380Z,11.42
2022-11-25T07:11:25.854Z,11.38
2022-11-25T07:13:55.543Z,11.22
2022-11-25T07:16:22.986Z,11.08
2022-11-25T07:18:49.940Z,10.98
2022-11-25T07:21:20.194Z,10.89
2022-11-25T07:23:47.146Z,10.50
2022-11-25T07:26:26.034Z,10.65
2022-11-25T07:28:55.085Z,10.62
2022-11-25T07:31:31.466Z,10.57
2022-11-25T07:34:23.584Z,10.33
2022-11-25T07:36:51.102Z,10.26
2022-11-25T07:39:22.844Z,10.26
2022-11-25T07:41:51.128Z,10.11
2022-11-25T07:44:18.093Z,10.06
2022-11-25T07:46:47.700Z,10.10
2022-11-25T07:49:20.917Z,10.10
2022-11-25T07:51:53.885Z,10.11
2022-11-25T07:54:21.845Z,10.07
2022-11-25T07:56:49.885Z,10.17
2022-11-25T07:59:22.080Z,10.23
2022-11-25T08:01:54.406Z,10.23
2022-11-25T08:04:21.814Z,10.24
2022-11-25T08:06:50.965Z,10.25
2022-11-25T08:09:21.103Z,10.15
2022-11-25T08:11:48.737Z,10.06
2022-11-25T08:14:16.126Z,10.17
2022-11-25T08:16:43.252Z,10.26
2022-11-25T08:19:14.471Z,10.53
2022-11-25T08:21:42.000Z,10.92
2022-11-25T08:24:14.894Z,11.21
2022-11-25T08:26:41.623Z,11.63
2022-11-25T08:29:09.466Z,12.14
2022-11-25T08:31:38.111Z,12.73
2022-11-25T08:34:07.409Z,13.21
2022-11-25T08:36:35.305Z,13.52
2022-11-25T08:39:22.552Z,13.61
2022-11-25T08:41:53.083Z,13.61
2022-11-25T08:44:19.940Z,13.51
2022-11-25T08:46:46.824Z,13.42
2022-11-25T08:49:17.497Z,13.25
2022-11-25T08:51:44.476Z,12.81
2022-11-25T08:54:11.276Z,12.40
2022-11-25T08:56:38.080Z,12.28
2022-11-25T08:59:05.269Z,12.02
2022-11-25T09:01:32.653Z,12.08
2022-11-25T09:03:59.965Z,12.11
2022-11-25T09:06:28.879Z,12.27
2022-11-25T09:09:01.942Z,12.42
2022-11-25T09:11:29.410Z,12.71
2022-11-25T09:13:56.493Z,13.07
2022-11-25T09:16:25.774Z,13.70
2022-11-25T09:18:56.131Z,14.31
2022-11-25T09:21:25.196Z,15.23
2022-11-25T09:23:54.968Z,16.50
2022-11-25T09:26:27.004Z,17.45
2022-11-25T09:28:54.319Z,18.25
2022-11-25T09:31:22.404Z,18.82
2022-11-25T09:33:49.293Z,19.17
2022-11-25T09:36:18.055Z,19.48
2022-11-25T09:38:45.064Z,19.84
2022-11-25T09:41:42.153Z,20.59
2022-11-25T09:45:04.346Z,21.61
2022-11-25T09:47:52.852Z,22.23
2022-11-25T09:50:41.496Z,22.90
2022-11-25T09:53:17.485Z,23.39
2022-11-25T09:55:47.675Z,23.50
2022-11-25T09:58:51.111Z,23.48
2022-11-25T10:01:23.517Z,23.37
2022-11-25T10:03:58.439Z,23.47
2022-11-25T10:06:28.577Z,23.86
2022-11-25T10:09:11.439Z,23.98
2022-11-25T10:11:50.406Z,24.24
2022-11-25T10:14:49.043Z,24.31
2022-11-25T10:17:15.783Z,24.56
2022-11-25T10:20:01.762Z,25.11
2022-11-25T10:22:32.866Z,25.58
2022-11-25T10:25:03.208Z,25.98
2022-11-25T10:27:41.867Z,26.24
2022-11-25T10:30:49.031Z,25.87
2022-11-25T10:33:32.971Z,24.21
2022-11-25T10:36:06.946Z,23.77
2022-11-25T10:38:42.748Z,23.13
2022-11-25T10:41:15.987Z,23.09
2022-11-25T10:43:45.867Z,23.01
2022-11-25T10:47:11.819Z,23.62
2022-11-25T10:50:01.157Z,24.40
2022-11-25T10:52:31.187Z,24.05
2022-11-25T10:55:09.834Z,23.39
2022-11-25T10:57:36.969Z,22.94
2022-11-25T11:00:06.173Z,23.06
2022-11-25T11:02:36.002Z,24.03
2022-11-25T11:05:08.532Z,24.95
2022-11-25T11:07:39.125Z,25.01
2022-11-25T11:10:14.804Z,24.97
2022-11-25T11:13:04.085Z,25.43
2022-11-25T11:15:30.648Z,25.58
2022-11-25T11:18:00.154Z,25.78
2022-11-25T11:20:31.831Z,26.47
2022-11-25T11:23:10.441Z,26.32
2022-11-25T11:25:39.532Z,25.46
2022-11-25T11:28:33.469Z,24.60
2022-11-25T11:31:10.182Z,25.06
2022-11-25T11:33:49.005Z,25.45
2022-11-25T11:36:21.885Z,24.76
2022-11-25T11:38:57.082Z,24.48
2022-11-25T11:41:50.322Z,24.95
2022-11-25T11:44:40.587Z,25.42
2022-11-25T11:47:44.137Z,25.15
2022-11-25T11:50:30.083Z,25.85
2022-11-25T11:53:11.785Z,25.23
2022-11-25T11:55:41.589Z,26.08
2022-11-25T11:58:45.717Z,26.08
2022-11-25T12:01:22.512Z,25.47
2022-11-25T12:04:00.368Z,25.49
2022-11-25T12:06:31.893Z,26.46
2022-11-25T12:09:05.205Z,26.56
2022-11-25T12:11:38.976Z,26.46
2022-11-25T12:14:36.784Z,26.60
2022-11-25T12:17:13.816Z,26.20
2022-11-25T12:20:07.745Z,26.98
2022-11-25T12:22:59.002Z,27.86
2022-11-25T12:25:37.714Z,28.40
2022-11-25T12:28:21.403Z,28.52
2022-11-25T12:30:51.105Z,28.05
2022-11-25T12:33:45.635Z,28.32
2022-11-25T12:36:18.042Z,29.25
2022-11-25T12:39:02.349Z,29.94
2022-11-25T12:41:41.443Z,29.87
2022-11-25T12:44:20.253Z,29.41
2022-11-25T12:46:50.033Z,29.91
2022-11-25T12:49:29.090Z,28.25
2022-11-25T12:51:55.701Z,25.70
2022-11-25T12:54:37.861Z,25.06
2022-11-25T12:57:07.714Z,25.77
2022-11-25T13:00:42.958Z,25.19
2022-11-25T13:03:21.102Z,25.06
2022-11-25T13:06:24.485Z,24.61
2022-11-25T13:09:01.402Z,24.72
2022-11-25T13:11:47.610Z,23.92
2022-11-25T13:14:52.115Z,21.82
2022-11-25T13:17:22.412Z,20.29
2022-11-25T13:19:49.559Z,18.91
2022-11-25T13:22:23.700Z,18.19
2022-11-25T13:24:50.866Z,17.80
2022-11-25T13:27:40.581Z,17.31
2022-11-25T13:30:33.541Z,16.94
2022-11-25T13:33:15.481Z,16.68
2022-11-25T13:35:46.236Z,16.64
2022-11-25T13:38:31.133Z,16.57
2022-11-25T13:41:04.142Z,16.63
2022-11-25T13:43:31.035Z,16.54
2022-11-25T13:45:58.012Z,16.63
2022-11-25T13:48:29.023Z,16.61
2022-11-25T13:51:17.515Z,16.70
2022-11-25T13:53:55.387Z,16.74
2022-11-25T13:56:28.014Z,16.80
2022-11-25T13:59:16.731Z,16.79
2022-11-25T14:01:46.842Z,16.93
2022-11-25T14:04:15.677Z,16.97
2022-11-25T14:06:57.681Z,17.06
2022-11-25T14:09:55.941Z,17.11
2022-11-25T14:12:34.114Z,17.16
2022-11-25T14:15:22.393Z,17.11
2022-11-25T14:18:31.451Z,17.01
2022-11-25T14:21:20.888Z,17.10
2022-11-25T14:24:03.965Z,17.12
2022-11-25T14:26:49.224Z,17.17
2022-11-25T14:29:25.875Z,17.13
2022-11-25T14:31:57.280Z,17.24
2022-11-25T14:34:41.814Z,17.25
2022-11-25T14:37:16.547Z,17.23
2022-11-25T14:39:53.012Z,17.07
2022-11-25T14:42:22.663Z,16.86
2022-11-25T14:44:51.772Z,17.01
2022-11-25T14:47:24.130Z,16.92
2022-11-25T14:50:33.773Z,16.90
2022-11-25T14:52:47.883Z,16.86
2022-11-25T14:55:24.130Z,16.58
2022-11-25T14:57:52.339Z,16.91
2022-11-25T15:00:19.315Z,16.96
2022-11-25T15:03:18.781Z,16.86
2022-11-25T15:05:54.920Z,16.89
2022-11-25T15:08:22.374Z,16.99
2022-11-25T15:11:02.910Z,17.02
2022-11-25T15:13:34.474Z,17.09
2022-11-25T15:16:16.183Z,17.12
2022-11-25T15:18:48.999Z,17.16
2022-11-25T15:21:19.497Z,17.13
2022-11-25T15:23:46.398Z,17.01
2022-11-25T15:26:27.958Z,17.05
2022-11-25T15:28:57.336Z,17.07
2022-11-25T15:31:31.511Z,17.00
2022-11-25T15:34:02.482Z,17.07
2022-11-25T15:36:29.651Z,17.01
2022-11-25T15:39:14.516Z,16.96
2022-11-25T15:41:44.264Z,17.01
2022-11-25T15:44:18.838Z,16.94
2022-11-25T15:47:11.570Z,17.02
2022-11-25T15:49:38.583Z,17.05
2022-11-25T15:52:13.390Z,17.00
2022-11-25T15:54:44.191Z,17.09
2022-11-25T15:57:27.016Z,17.09
2022-11-25T15:59:53.735Z,17.15
2022-11-25T16:02:34.593Z,17.10
2022-11-25T16:05:13.588Z,17.08
2022-11-25T16:07:52.474Z,17.07
2022-11-25T16:10:22.137Z,17.11
2022-11-25T16:13:23.442Z,16.99
2022-11-25T16:16:24.317Z,16.93
2022-11-25T16:19:03.501Z,16.93
2022-11-25T16:21:38.983Z,16.96
2022-11-25T16:24:05.828Z,17.01
2022-11-25T16:26:35.139Z,17.01
2022-11-25T16:29:08.784Z,16.97
2022-11-25T16:31:35.546Z,16.97
2022-11-25T16:34:14.615Z,16.92
2022-11-25T16:36:42.479Z,16.93
2022-11-25T16:39:09.728Z,16.86
2022-11-25T16:41:36.875Z,16.85
2022-11-25T16:44:21.354Z,16.71
2022-11-25T16:46:48.335Z,16.60
2022-11-25T16:49:17.348Z,16.58
2022-11-25T16:51:44.667Z,16.53
2022-11-25T16:54:12.681Z,16.47
2022-11-25T16:56:42.049Z,16.43
2022-11-25T16:59:22.331Z,16.22
2022-11-25T17:01:50.201Z,16.21
2022-11-25T17:04:17.727Z,16.13
2022-11-25T17:06:54.028Z,16.05
2022-11-25T17:09:32.462Z,15.99
2022-11-25T17:11:59.412Z,15.92
2022-11-25T17:14:34.743Z,15.82
2022-11-25T17:17:05.801Z,15.72
2022-11-25T17:19:32.768Z,15.66
2022-11-25T17:21:59.618Z,15.50
2022-11-25T17:24:27.247Z,15.53
2022-11-25T17:27:05.725Z,15.40
2022-11-25T17:29:37.298Z,15.35
2022-11-25T17:32:05.264Z,15.26
2022-11-25T17:34:36.413Z,15.15
2022-11-25T17:37:25.848Z,14.99
2022-11-25T17:39:53.889Z,14.98
2022-11-25T17:42:28.549Z,14.92
2022-11-25T17:44:55.531Z,14.86
2022-11-25T17:47:23.052Z,14.75
2022-11-25T17:49:49.947Z,14.66
2022-11-25T17:52:16.861Z,14.67
2022-11-25T17:54:43.670Z,14.64
2022-11-25T17:57:17.858Z,14.66
2022-11-25T17:59:44.780Z,14.67
2022-11-25T18:02:18.792Z,14.59
2022-11-25T18:04:45.732Z,14.62
2022-11-25T18:07:12.468Z,14.58
2022-11-25T18:09:39.483Z,14.54
2022-11-25T18:12:20.135Z,14.42
2022-11-25T18:14:46.984Z,14.44
2022-11-25T18:17:16.894Z,14.42
2022-11-25T18:19:44.176Z,14.38
2022-11-25T18:22:13.641Z,14.42
2022-11-25T18:24:41.049Z,14.40
2022-11-25T18:27:13.492Z,14.34
2022-11-25T18:29:40.230Z,14.34
2022-11-25T18:32:09.912Z,14.32
2022-11-25T18:34:37.040Z,14.29
2022-11-25T18:37:04.564Z,14.24
2022-11-25T18:39:31.394Z,14.20
2022-11-25T18:42:00.050Z,14.20
2022-11-25T18:44:31.588Z,14.14
2022-11-25T18:46:58.322Z,14.09
2022-11-25T18:49:25.048Z,14.09
2022-11-25T18:51:51.886Z,14.13
2022-11-25T18:54:18.604Z,14.10
2022-11-25T18:56:50.231Z,14.04
2022-11-25T18:59:21.156Z,14.10
2022-11-25T19:01:50.032Z,14.02
2022-11-25T19:04:17.560Z,13.99
2022-11-25T19:06:44.734Z,13.94
2022-11-25T19:09:12.094Z,13.98
2022-11-25T19:11:42.758Z,13.95
2022-11-25T19:14:33.350Z,13.83
2022-11-25T19:17:07.521Z,13.70
2022-11-25T19:19:35.647Z,13.71
2022-11-25T19:22:02.694Z,13.75
2022-11-25T19:24:29.573Z,13.71
2022-11-25T19:26:57.629Z,13.75
2022-11-25T19:29:41.843Z,13.73
2022-11-25T19:32:23.608Z,13.74
2022-11-25T19:34:55.161Z,13.77
2022-11-25T19:37:22.821Z,13.77
2022-11-25T19:39:56.421Z,13.71
2022-11-25T19:42:25.520Z,13.77
2022-11-25T19:44:53.114Z,13.82
2022-11-25T19:47:21.582Z,13.87
2022-11-25T19:49:50.791Z,13.87
2022-11-25T19:52:23.283Z,13.89
2022-11-25T19:54:51.156Z,13.88
2022-11-25T19:57:20.653Z,13.88
2022-11-25T19:59:47.975Z,13.85
2022-11-25T20:02:26.269Z,13.83
2022-11-25T20:04:55.951Z,13.85
2022-11-25T20:07:23.137Z,13.80
2022-11-25T20:09:51.666Z,13.82
2022-11-25T20:12:28.655Z,13.75
2022-11-25T20:14:55.407Z,13.68
2022-11-25T20:17:34.292Z,13.74
2022-11-25T20:20:16.867Z,13.70
2022-11-25T20:23:06.205Z,13.65
2022-11-25T20:25:37.039Z,13.74
2022-11-25T20:28:03.789Z,13.72
2022-11-25T20:30:30.626Z,13.68
2022-11-25T20:32:57.368Z,13.75
2022-11-25T20:35:25.979Z,13.72
2022-11-25T20:37:58.176Z,13.71
2022-11-25T20:40:42.415Z,13.70
2022-11-25T20:43:38.912Z,13.62
2022-11-25T20:46:07.225Z,13.72
2022-11-25T20:48:37.528Z,13.73
2022-11-25T20:51:12.907Z,13.68
2022-11-25T20:53:43.658Z,13.60
2022-11-25T20:56:14.557Z,13.56
2022-11-25T20:58:41.339Z,13.41
2022-11-25T21:01:08.209Z,13.49
2022-11-25T21:03:35.116Z,13.37
2022-11-25T21:06:03.152Z,13.32
2022-11-25T21:08:31.023Z,13.28
2022-11-25T21:10:59.343Z,13.11
2022-11-25T21:13:28.873Z,13.21
2022-11-25T21:15:57.780Z,13.22
2022-11-25T21:18:25.526Z,13.25
2022-11-25T21:20:54.586Z,13.19
2022-11-25T21:23:22.780Z,13.13
2022-11-25T21:25:50.700Z,13.09
2022-11-25T21:28:20.622Z,12.99
2022-11-25T21:30:47.852Z,12.95
2022-11-25T21:33:15.937Z,12.92
2022-11-25T21:35:46.159Z,12.88
2022-11-25T21:38:18.019Z,12.45
2022-11-25T21:40:47.575Z,12.63
2022-11-25T21:43:22.390Z,12.62
2022-11-25T21:45:52.729Z,12.68
2022-11-25T21:48:24.659Z,12.65
2022-11-25T21:50:51.983Z,12.54
2022-11-25T21:53:19.074Z,12.46
2022-11-25T21:55:46.610Z,12.29
2022-11-25T21:58:19.866Z,12.30
2022-11-25T22:00:58.276Z,12.20
2022-11-25T22:03:26.890Z,12.19
2022-11-25T22:05:53.580Z,12.11
2022-11-25T22:08:20.400Z,12.16
2022-11-25T22:10:50.480Z,12.14
2022-11-25T22:13:23.947Z,12.08
2022-11-25T22:15:55.697Z,12.12
2022-11-25T22:18:33.009Z,12.03
2022-11-25T22:21:00.180Z,12.01
2022-11-25T22:23:27.844Z,11.97
2022-11-25T22:25:55.207Z,11.90
2022-11-25T22:28:24.627Z,11.72
2022-11-25T22:30:53.983Z,11.66
2022-11-25T22:33:24.678Z,11.63
2022-11-25T22:35:51.435Z,11.52
2022-11-25T22:38:18.890Z,11.47
2022-11-25T22:40:51.529Z,11.36
2022-11-25T22:43:22.055Z,11.32
2022-11-25T22:45:49.633Z,11.32
2022-11-25T22:48:24.175Z,11.33
2022-11-25T22:50:50.891Z,11.29
2022-11-25T22:53:18.990Z,11.35
2022-11-25T22:55:46.527Z,11.33
2022-11-25T22:58:14.703Z,11.32
2022-11-25T23:00:45.389Z,11.48
2022-11-25T23:03:19.039Z,11.46
2022-11-25T23:05:46.436Z,11.50
2022-11-25T23:08:15.966Z,11.63
2022-11-25T23:10:43.534Z,11.68
2022-11-25T23:13:10.844Z,11.66
2022-11-25T23:15:38.402Z,11.64
2022-11-25T23:18:13.967Z,11.61
2022-11-25T23:20:40.837Z,11.52
2022-11-25T23:23:27.242Z,11.47
2022-11-25T23:25:54.967Z,11.42
2022-11-25T23:28:22.278Z,11.49
2022-11-25T23:30:54.604Z,11.38
2022-11-25T23:33:32.640Z,11.44
2022-11-25T23:36:04.747Z,11.43
2022-11-25T23:38:38.594Z,11.42
2022-11-25T23:41:05.547Z,11.44
2022-11-25T23:43:32.239Z,11.35
2022-11-25T23:45:59.296Z,11.30
2022-11-25T23:48:30.735Z,11.18
2022-11-25T23:50:59.340Z,11.15
2022-11-25T23:53:32.248Z,11.07
2022-11-25T23:55:59.467Z,11.11
2022-11-25T23:58:26.281Z,11.17
